Time;durP1;ratioP1;P1;durP2;ratioP2;P2;SDS_P1;SDS_P2;PMS_P1;PMS_P2;Temp;Humidity;BMP_temperature;BMP_pressure;BME280_temperature;BME280_humidity;BME280_pressure;Samples;Min_cycle;Max_cycle;Signal;HPM_P1;HPM_P2
2021/11/09 00:02:19;;;;;;;6.62;3.00;;;;;;;8.71;58.57;100782.20;1750407;80;21507;-58
2021/11/09 00:04:51;;;;;;;6.35;2.87;;;;;;;8.72;58.55;100786.49;1759996;79;21097;-59
2021/11/09 00:09:58;;;;;;;6.40;3.12;;;;;;;8.69;58.69;100788.86;1800174;77;21006;-59
2021/11/09 00:12:31;;;;;;;6.12;3.00;;;;;;;8.67;58.78;100787.27;1799491;77;21531;-58
2021/11/09 00:14:59;;;;;;;9.83;3.30;;;;;;;8.64;58.90;100784.39;1805349;77;21964;-59
2021/11/09 00:17:28;;;;;;;7.42;2.58;;;;;;;8.62;58.97;100788.88;1773420;78;21881;-59
2021/11/09 00:19:55;;;;;;;7.22;3.20;;;;;;;8.60;59.04;100790.77;1772930;79;21532;-58
2021/11/09 00:22:22;;;;;;;8.15;2.80;;;;;;;8.65;59.10;100782.59;1800413;77;21061;-59
2021/11/09 00:24:49;;;;;;;7.17;3.50;;;;;;;8.75;58.96;100787.61;1752524;78;21968;-59
2021/11/09 00:27:17;;;;;;;7.62;3.45;;;;;;;8.83;58.95;100784.01;1772116;78;21617;-59
2021/11/09 00:29:45;;;;;;;4.80;2.60;;;;;;;8.84;58.89;100789.64;1774238;78;21774;-58
2021/11/09 00:32:11;;;;;;;6.72;2.85;;;;;;;8.83;58.99;100785.80;1779633;78;21054;-59
2021/11/09 00:34:38;;;;;;;6.55;2.87;;;;;;;8.79;59.11;100783.83;1777944;77;21081;-60
2021/11/09 00:37:05;;;;;;;8.25;3.10;;;;;;;8.76;59.21;100783.19;1750805;78;21129;-59
2021/11/09 00:39:32;;;;;;;6.33;2.77;;;;;;;8.75;59.29;100788.92;1785928;78;21053;-59
2021/11/09 00:41:59;;;;;;;9.28;3.52;;;;;;;8.77;59.34;100790.13;1773368;79;22354;-60
2021/11/09 00:44:26;;;;;;;7.50;3.10;;;;;;;8.81;59.33;100790.28;1774175;78;21097;-60
2021/11/09 00:46:52;;;;;;;7.40;3.33;;;;;;;8.84;59.33;100790.09;1745341;78;21081;-59
2021/11/09 00:49:19;;;;;;;6.22;2.52;;;;;;;8.86;59.36;100786.88;1774769;78;21041;-59
2021/11/09 00:51:46;;;;;;;7.25;2.95;;;;;;;8.84;59.35;100788.77;1777726;79;21018;-60
2021/11/09 00:54:13;;;;;;;7.62;3.27;;;;;;;8.83;59.52;100787.11;1777893;78;21516;-59
2021/11/09 00:56:40;;;;;;;9.48;3.27;;;;;;;8.82;59.65;100790.19;1806114;77;21042;-61
2021/11/09 00:59:07;;;;;;;8.28;2.77;;;;;;;8.79;59.88;100782.52;1803394;77;21284;-59
2021/11/09 01:01:34;;;;;;;6.40;2.50;;;;;;;8.80;60.01;100780.27;1778383;78;21076;-59
2021/11/09 01:04:00;;;;;;;6.80;2.98;;;;;;;8.86;59.95;100783.81;1802144;77;21073;-60
2021/11/09 01:06:27;;;;;;;7.53;3.27;;;;;;;8.90;59.95;100798.39;1767735;79;21153;-59
2021/11/09 01:08:54;;;;;;;6.37;2.75;;;;;;;8.90;60.03;100799.70;1768386;80;21101;-60
2021/11/09 01:11:20;;;;;;;7.92;3.30;;;;;;;8.93;59.99;100799.98;1767836;79;21499;-60
2021/11/09 01:14:51;;;;;;;7.55;2.72;;;;;;;8.95;59.94;100796.78;1797999;77;23911;-58
2021/11/09 01:17:18;;;;;;;8.45;3.45;;;;;;;8.88;59.97;100802.91;1747757;80;21089;-60
2021/11/09 01:19:46;;;;;;;7.58;3.25;;;;;;;8.85;60.03;100803.59;1769205;78;21980;-60
2021/11/09 01:22:13;;;;;;;6.42;3.50;;;;;;;8.82;60.12;100799.85;1766997;78;20999;-60
2021/11/09 01:24:39;;;;;;;7.17;2.85;;;;;;;8.78;60.26;100803.63;1771831;78;21075;-58
2021/11/09 01:27:07;;;;;;;7.37;3.15;;;;;;;8.71;60.42;100808.44;1769143;79;21059;-60
2021/11/09 01:29:33;;;;;;;9.08;3.00;;;;;;;8.67;60.62;100817.44;1768207;79;21586;-59
2021/11/09 01:32:01;;;;;;;7.05;2.98;;;;;;;8.60;60.70;100826.17;1743706;80;22081;-59
2021/11/09 01:34:27;;;;;;;7.67;3.02;;;;;;;8.52;60.96;100825.83;1770264;78;21034;-58
2021/11/09 01:36:56;;;;;;;7.15;2.90;;;;;;;8.50;61.09;100829.02;1769458;79;21646;-59
2021/11/09 01:39:23;;;;;;;7.37;2.60;;;;;;;8.55;61.13;100836.95;1777444;78;20973;-60
2021/11/09 01:41:49;;;;;;;7.90;3.05;;;;;;;8.62;61.14;100837.41;1741045;79;21758;-59
2021/11/09 01:44:16;;;;;;;6.72;2.70;;;;;;;8.64;61.15;100839.48;1772764;78;21157;-59
2021/11/09 01:46:44;;;;;;;5.70;2.75;;;;;;;8.65;61.23;100836.38;1770286;78;21711;-59
2021/11/09 01:49:11;;;;;;;6.35;3.10;;;;;;;8.67;61.19;100835.31;1741247;79;21043;-59
2021/11/09 01:51:37;;;;;;;8.08;2.70;;;;;;;8.66;61.24;100829.72;1770609;78;20991;-59
2021/11/09 01:54:04;;;;;;;6.10;2.67;;;;;;;8.68;61.25;100836.19;1769004;78;21089;-59
2021/11/09 01:56:32;;;;;;;7.62;3.20;;;;;;;8.68;61.22;100838.33;1768677;79;21140;-59
2021/11/09 01:58:59;;;;;;;7.30;3.27;;;;;;;8.70;61.20;100830.36;1747257;80;21034;-59
2021/11/09 02:01:26;;;;;;;8.28;3.15;;;;;;;8.72;61.21;100833.27;1774355;79;21042;-59
2021/11/09 02:03:56;;;;;;;5.58;2.67;;;;;;;8.77;61.14;100839.50;1771189;78;22289;-58
2021/11/09 02:06:23;;;;;;;7.22;3.17;;;;;;;8.83;61.01;100839.59;1767949;79;21589;-59
2021/11/09 02:08:51;;;;;;;5.50;2.72;;;;;;;8.86;60.94;100851.18;1742692;80;21066;-58
2021/11/09 02:11:17;;;;;;;8.70;3.45;;;;;;;8.87;60.66;100858.13;1772884;79;21003;-58
2021/11/09 02:13:45;;;;;;;4.72;1.85;;;;;;;8.88;60.57;100855.88;1740506;80;21157;-58
2021/11/09 02:16:12;;;;;;;4.00;1.30;;;;;;;8.93;59.92;100850.69;1769980;79;21015;-58
2021/11/09 02:18:39;;;;;;;6.00;1.67;;;;;;;8.89;59.18;100857.09;1766786;79;21129;-59
2021/11/09 02:21:09;;;;;;;2.83;1.10;;;;;;;8.84;59.43;100867.05;1734739;79;21960;-59
2021/11/09 02:23:35;;;;;;;4.42;1.57;;;;;;;8.78;58.94;100870.06;1742223;79;21509;-58
2021/11/09 02:26:03;;;;;;;3.22;1.05;;;;;;;8.71;58.90;100868.78;1771610;79;21422;-60
2021/11/09 02:28:31;;;;;;;4.50;1.37;;;;;;;8.62;59.26;100878.06;1735246;80;21714;-59
2021/11/09 02:30:58;;;;;;;4.00;1.15;;;;;;;8.56;59.71;100885.03;1743719;80;21014;-59
2021/11/09 02:33:25;;;;;;;5.03;1.40;;;;;;;8.51;59.80;100880.55;1774106;79;21159;-59
2021/11/09 02:35:52;;;;;;;4.80;1.30;;;;;;;8.55;59.89;100884.65;1766043;79;21059;-60
2021/11/09 02:38:18;;;;;;;3.80;1.22;;;;;;;8.63;59.85;100875.83;1732523;80;21015;-59
2021/11/09 02:40:45;;;;;;;4.33;1.52;;;;;;;8.71;59.21;100879.28;1764920;78;21050;-60
2021/11/09 02:43:14;;;;;;;3.95;1.45;;;;;;;8.68;58.73;100884.72;1733686;80;21043;-59
2021/11/09 02:46:03;;;;;;;4.25;1.25;;;;;;;8.65;58.70;100884.91;1744632;79;21011;-59
2021/11/09 02:48:26;;;;;;;4.33;1.52;;;;;;;8.58;58.89;100885.77;1763768;79;21437;-59
2021/11/09 02:50:52;;;;;;;5.35;1.30;;;;;;;8.52;59.16;100884.39;1768183;79;21591;-58
2021/11/09 02:53:41;;;;;;;4.47;1.40;;;;;;;8.47;59.31;100890.84;1767321;79;21082;-58
2021/11/09 02:56:17;;;;;;;;;;;;;;;8.41;59.64;100891.22;1769991;79;21156;-58
2021/11/09 02:58:47;;;;;;;1.92;0.80;;;;;;;8.33;59.46;100893.83;1759351;79;21118;-58
2021/11/09 03:01:19;;;;;;;4.47;1.32;;;;;;;8.22;59.71;100903.30;1766489;79;21464;-59
2021/11/09 03:03:51;;;;;;;3.55;0.95;;;;;;;8.23;59.49;100899.28;1761493;78;21081;-59
2021/11/09 03:11:25;;;;;;;2.92;1.00;;;;;;;8.13;59.22;100912.10;1767321;79;21046;-59
2021/11/09 03:13:52;;;;;;;4.28;1.00;;;;;;;8.08;59.39;100919.88;1765652;79;21747;-59
2021/11/09 03:16:19;;;;;;;3.33;1.12;;;;;;;8.04;59.48;100915.78;1770881;78;21034;-59
2021/11/09 03:40:50;;;;;;;4.87;1.30;;;;;;;7.95;59.55;100924.57;1711499;82;21568;-58
2021/11/09 03:45:53;;;;;;;3.60;1.00;;;;;;;7.75;58.92;100928.83;1732283;81;21591;-59
2021/11/09 03:48:21;;;;;;;5.12;1.30;;;;;;;7.62;58.88;100934.80;1686894;83;21083;-58
2021/11/09 03:50:49;;;;;;;3.70;1.10;;;;;;;7.51;58.98;100938.51;1720841;81;21326;-58
2021/11/09 03:58:22;;;;;;;4.10;1.35;;;;;;;7.35;59.33;100952.97;1689244;83;22189;-58
2021/11/09 04:00:50;;;;;;;3.25;1.00;;;;;;;7.29;59.85;100953.78;1682281;82;21122;-59
2021/11/09 04:03:45;;;;;;;3.15;1.15;;;;;;;7.24;60.01;100958.80;1708649;82;21815;-58
2021/11/09 04:06:21;;;;;;;3.90;1.25;;;;;;;7.18;60.16;100965.71;1679802;83;21055;-58
2021/11/09 05:01:10;;;;;;;;;;;;;;;6.61;61.58;101017.70;1760574;79;21086;-57
2021/11/09 05:01:51;;;;;;;5.08;1.90;;;;;;;6.57;61.79;101015.68;1733483;79;20429;-58
2021/11/09 05:09:39;;;;;;;5.60;2.17;;;;;;;6.60;62.02;101030.37;1733739;79;21724;-59
2021/11/09 05:12:06;;;;;;;3.85;1.32;;;;;;;6.59;61.90;101039.14;1751570;79;21086;-59
2021/11/09 05:14:33;;;;;;;4.00;1.40;;;;;;;6.57;61.53;101034.45;1764008;79;21082;-59
2021/11/09 05:17:01;;;;;;;4.10;1.37;;;;;;;6.51;61.38;101040.39;1731689;80;20989;-58
2021/11/09 05:19:27;;;;;;;5.58;1.72;;;;;;;6.47;61.33;101047.16;1743715;79;21032;-59
2021/11/09 05:21:55;;;;;;;4.53;1.55;;;;;;;6.42;61.27;101045.25;1766899;80;21159;-59
2021/11/09 05:24:21;;;;;;;4.25;1.70;;;;;;;6.36;61.32;101057.36;1766411;79;21046;-59
2021/11/09 05:26:47;;;;;;;4.85;1.70;;;;;;;6.28;61.34;101062.49;1764014;79;21564;-58
2021/11/09 05:29:14;;;;;;;4.53;1.70;;;;;;;6.25;61.18;101063.11;1767233;79;21050;-59
2021/11/09 05:31:41;;;;;;;4.87;1.82;;;;;;;6.28;61.16;101076.03;1764565;79;21063;-58
2021/11/09 05:34:08;;;;;;;5.53;1.52;;;;;;;6.25;61.28;101082.24;1760654;79;21014;-59
2021/11/09 05:36:37;;;;;;;4.20;1.70;;;;;;;6.21;61.35;101083.80;1764586;79;21090;-60
2021/11/09 05:39:11;;;;;;;6.58;1.85;;;;;;;6.15;61.56;101088.86;1762768;79;21070;-62
2021/11/09 05:41:37;;;;;;;4.37;1.85;;;;;;;6.13;61.69;101096.77;1761895;79;21047;-59
2021/11/09 05:44:04;;;;;;;5.12;1.98;;;;;;;6.08;61.43;101095.33;1760747;79;21139;-59
2021/11/09 05:46:33;;;;;;;5.47;1.85;;;;;;;6.00;61.20;101107.48;1765615;79;21052;-59
2021/11/09 05:49:01;;;;;;;6.00;2.25;;;;;;;5.92;61.24;101109.11;1737090;80;21035;-60
2021/11/09 05:51:28;;;;;;;7.00;2.35;;;;;;;5.88;60.91;101104.11;1733054;80;21140;-60
2021/11/09 05:53:55;;;;;;;5.05;2.05;;;;;;;5.78;60.82;101115.45;1764545;80;21046;-60
2021/11/09 05:56:23;;;;;;;5.45;2.45;;;;;;;5.68;61.04;101124.22;1739915;79;20960;-61
2021/11/09 05:58:49;;;;;;;7.75;3.27;;;;;;;5.58;61.15;101128.16;1766980;79;21124;-58
2021/11/09 06:01:16;;;;;;;6.87;2.95;;;;;;;5.49;61.41;101129.91;1746919;80;21776;-59
2021/11/09 06:03:42;;;;;;;5.87;2.92;;;;;;;5.40;61.60;101128.58;1772989;79;21086;-58
2021/11/09 06:06:09;;;;;;;6.95;2.80;;;;;;;5.36;61.73;101138.75;1771246;79;21592;-62
2021/11/09 06:08:36;;;;;;;4.87;2.00;;;;;;;5.42;61.66;101140.26;1743736;79;21063;-60
2021/11/09 06:11:02;;;;;;;4.67;1.90;;;;;;;5.43;61.49;101147.15;1764210;79;21139;-60
2021/11/09 06:13:30;;;;;;;3.72;1.42;;;;;;;5.40;61.36;101156.82;1762203;79;21019;-60
2021/11/09 06:15:57;;;;;;;4.00;1.62;;;;;;;5.38;61.11;101152.14;1757563;79;21280;-60
2021/11/09 06:18:24;;;;;;;4.15;1.87;;;;;;;5.33;61.17;101161.08;1733586;79;20987;-61
2021/11/09 06:20:51;;;;;;;3.85;1.62;;;;;;;5.29;61.21;101167.36;1731314;79;21051;-61
2021/11/09 06:23:17;;;;;;;4.97;1.72;;;;;;;5.29;61.42;101175.19;1756937;79;21162;-59
2021/11/09 06:25:45;;;;;;;4.67;1.70;;;;;;;5.31;61.33;101170.75;1754786;79;22451;-59
2021/11/09 06:28:12;;;;;;;5.80;1.75;;;;;;;5.40;60.79;101178.17;1756640;79;20980;-59
2021/11/09 06:30:39;;;;;;;4.22;1.60;;;;;;;5.48;60.71;101191.72;1756819;79;21034;-60
2021/11/09 06:33:05;;;;;;;4.00;1.60;;;;;;;5.47;60.09;101186.10;1731482;80;21114;-59
2021/11/09 06:35:32;;;;;;;7.65;2.10;;;;;;;5.46;60.16;101188.78;1757286;79;22232;-60
2021/11/09 06:37:58;;;;;;;4.47;2.08;;;;;;;5.45;60.32;101193.63;1754071;79;21063;-60
2021/11/09 06:40:25;;;;;;;6.08;2.20;;;;;;;5.46;60.37;101200.05;1755680;79;21157;-61
2021/11/09 06:42:51;;;;;;;5.90;2.50;;;;;;;5.43;60.12;101196.74;1758213;79;21055;-60
2021/11/09 06:45:17;;;;;;;6.42;2.00;;;;;;;5.39;60.52;101207.31;1754787;79;21481;-60
2021/11/09 06:47:45;;;;;;;3.47;1.47;;;;;;;5.40;60.87;101207.72;1756753;79;21516;-61
2021/11/09 06:50:12;;;;;;;3.92;1.70;;;;;;;5.45;60.09;101211.44;1706710;82;20968;-59
2021/11/09 06:52:38;;;;;;;5.12;1.72;;;;;;;5.38;59.78;101207.41;1741839;79;21020;-59
2021/11/09 06:55:05;;;;;;;4.35;1.92;;;;;;;5.32;59.85;101216.81;1752215;79;21095;-58
2021/11/09 06:57:31;;;;;;;4.65;1.45;;;;;;;5.23;60.06;101215.47;1754353;79;21066;-58
2021/11/09 06:59:58;;;;;;;4.80;1.77;;;;;;;5.17;60.03;101217.87;1755921;79;21134;-59
2021/11/09 07:02:27;;;;;;;3.85;1.52;;;;;;;5.13;59.61;101220.23;1765486;79;21567;-59
2021/11/09 07:04:52;;;;;;;3.67;1.40;;;;;;;5.08;59.38;101229.16;1759026;79;20999;-60
2021/11/09 07:07:20;;;;;;;3.87;1.22;;;;;;;5.05;59.96;101235.38;1736782;80;21706;-60
2021/11/09 07:09:46;;;;;;;5.33;1.42;;;;;;;5.10;59.43;101222.14;1757001;79;21066;-60
2021/11/09 07:12:14;;;;;;;3.70;1.50;;;;;;;5.12;58.65;101241.17;1753716;79;21097;-61
2021/11/09 07:14:40;;;;;;;4.12;1.52;;;;;;;5.08;58.76;101239.59;1764695;79;21031;-60
2021/11/09 07:17:09;;;;;;;3.08;1.12;;;;;;;5.09;58.89;101245.22;1758285;79;21064;-60
2021/11/09 07:19:39;;;;;;;3.55;1.40;;;;;;;5.07;58.36;101252.27;1698017;82;21047;-59
2021/11/09 07:22:06;;;;;;;6.90;1.55;;;;;;;5.06;58.38;101255.78;1765801;79;21016;-59
2021/11/09 07:24:32;;;;;;;3.15;1.10;;;;;;;4.99;57.98;101246.94;1738891;79;22198;-60
2021/11/09 07:26:59;;;;;;;5.17;1.75;;;;;;;4.96;58.39;101265.75;1752366;79;21043;-61
2021/11/09 07:29:25;;;;;;;3.98;1.32;;;;;;;4.91;58.43;101269.88;1735535;79;21043;-58
2021/11/09 07:31:55;;;;;;;7.42;1.50;;;;;;;4.90;58.21;101268.17;1756868;79;21082;-60
2021/11/09 07:34:20;;;;;;;3.58;1.40;;;;;;;4.91;57.57;101278.14;1756411;79;21549;-59
2021/11/09 07:36:46;;;;;;;5.40;2.45;;;;;;;4.94;57.60;101276.70;1731029;80;21202;-58
2021/11/09 07:39:13;;;;;;;5.33;2.10;;;;;;;4.95;57.58;101271.90;1743796;79;21126;-59
2021/11/09 07:41:40;;;;;;;4.85;2.12;;;;;;;5.01;57.77;101285.99;1755983;79;21047;-57
2021/11/09 07:44:08;;;;;;;4.45;1.75;;;;;;;5.04;57.48;101288.45;1757923;79;21154;-59
2021/11/09 07:46:37;;;;;;;4.45;1.95;;;;;;;5.08;56.84;101281.33;1757665;79;22111;-58
2021/11/09 07:49:04;;;;;;;4.78;2.00;;;;;;;5.06;56.66;101288.38;1753605;79;21139;-58
2021/11/09 07:51:30;;;;;;;7.12;2.22;;;;;;;5.05;56.77;101291.46;1729823;80;21508;-59
2021/11/09 07:53:59;;;;;;;7.05;2.00;;;;;;;5.06;56.64;101295.78;1740379;80;21485;-56
2021/11/09 07:56:30;;;;;;;6.10;1.85;;;;;;;5.06;56.57;101305.34;1758527;79;21082;-59
2021/11/09 07:59:21;;;;;;;6.03;2.30;;;;;;;5.08;57.01;101301.77;1751880;79;21062;-60
2021/11/09 08:01:45;;;;;;;4.85;1.95;;;;;;;5.15;55.87;101303.20;1754094;79;21162;-58
2021/11/09 08:04:24;;;;;;;2.62;1.10;;;;;;;5.25;55.78;101315.40;1759627;79;21589;-59
2021/11/09 08:06:54;;;;;;;4.30;1.45;;;;;;;5.20;55.40;101313.45;1742343;79;21071;-59
2021/11/09 08:09:26;;;;;;;5.05;1.90;;;;;;;5.16;56.22;101319.69;1754705;79;21755;-59
2021/11/09 08:11:51;;;;;;;3.52;1.20;;;;;;;5.15;56.07;101323.23;1753484;79;21063;-58
2021/11/09 08:14:18;;;;;;;6.10;2.65;;;;;;;5.08;55.55;101329.16;1735086;79;21062;-57
2021/11/09 08:16:48;;;;;;;8.05;2.10;;;;;;;5.05;56.15;101339.72;1767537;79;21113;-59
2021/11/09 08:19:16;;;;;;;4.33;1.60;;;;;;;5.04;56.05;101351.05;1762568;79;21098;-59
2021/11/09 08:21:43;;;;;;;7.35;2.83;;;;;;;5.02;56.03;101343.75;1764469;79;21132;-59
2021/11/09 08:24:10;;;;;;;4.60;1.45;;;;;;;5.05;55.90;101351.92;1765719;79;21054;-57
2021/11/09 08:26:38;;;;;;;4.45;1.37;;;;;;;5.07;55.66;101367.05;1764992;79;21201;-57
2021/11/09 08:29:04;;;;;;;4.62;1.82;;;;;;;5.08;55.50;101364.38;1762013;79;21008;-58
2021/11/09 08:31:33;;;;;;;4.87;2.20;;;;;;;5.10;55.01;101365.16;1762015;79;20963;-60
2021/11/09 08:34:01;;;;;;;4.83;1.62;;;;;;;5.15;55.69;101372.34;1765904;79;21046;-58
2021/11/09 08:36:31;;;;;;;3.55;1.15;;;;;;;5.21;54.88;101373.83;1763743;79;21878;-59
2021/11/09 08:39:04;;;;;;;5.20;1.77;;;;;;;5.25;54.85;101379.80;1744847;80;21126;-58
2021/11/09 08:41:39;;;;;;;4.65;1.70;;;;;;;5.24;54.28;101380.23;1767601;79;21034;-58
2021/11/09 08:44:07;;;;;;;4.37;1.52;;;;;;;5.25;54.80;101374.11;1763452;79;21109;-59
2021/11/09 08:46:41;;;;;;;3.75;1.30;;;;;;;5.27;54.83;101378.80;1733909;80;21062;-62
2021/11/09 08:49:06;;;;;;;6.47;1.47;;;;;;;5.31;54.58;101379.09;1763152;79;21109;-59
2021/11/09 08:51:33;;;;;;;4.37;1.67;;;;;;;5.33;54.58;101373.77;1763736;79;21222;-60
2021/11/09 08:54:17;;;;;;;5.40;1.60;;;;;;;5.36;54.39;101383.66;1766106;79;20991;-60
2021/11/09 09:04:11;;;;;;;3.98;1.50;;;;;;;5.42;53.63;101385.61;1764871;79;21019;-60
2021/11/09 09:04:22;;;;;;;4.53;1.30;;;;;;;5.41;53.73;101383.44;1733874;80;21495;-58
2021/11/09 09:06:51;;;;;;;4.30;1.77;;;;;;;5.40;53.42;101374.77;1741490;80;21082;-59
2021/11/09 09:09:20;;;;;;;3.98;1.77;;;;;;;5.40;53.66;101379.14;1764870;79;21030;-62
2021/11/09 09:11:48;;;;;;;4.10;1.60;;;;;;;5.38;53.75;101373.98;1738884;80;21082;-55
2021/11/09 09:14:18;;;;;;;4.90;1.75;;;;;;;5.34;53.16;101385.45;1734529;79;21360;-59
2021/11/09 09:16:46;;;;;;;5.20;1.75;;;;;;;5.31;53.55;101391.27;1757818;79;21102;-58
2021/11/09 09:19:14;;;;;;;5.90;1.90;;;;;;;5.22;53.71;101401.63;1752382;79;21513;-56
2021/11/09 09:21:46;;;;;;;8.50;2.70;;;;;;;5.17;54.29;101406.20;1755141;79;21063;-57
2021/11/09 09:24:22;;;;;;;4.12;1.50;;;;;;;5.10;54.20;101412.58;1719354;82;21186;-60
2021/11/09 09:26:48;;;;;;;3.42;1.35;;;;;;;5.10;54.42;101421.25;1754763;79;21070;-59
2021/11/09 09:29:15;;;;;;;3.30;1.00;;;;;;;5.16;54.39;101434.06;1753772;79;21142;-59
2021/11/09 09:53:55;;;;;;;2.40;0.70;;;;;;;5.03;51.18;101462.85;1758020;79;21090;-61
2021/11/09 09:56:06;;;;;;;3.42;1.27;;;;;;;5.02;51.28;101465.89;1754357;79;21609;-59
2021/11/09 09:58:32;;;;;;;4.42;1.40;;;;;;;5.11;51.46;101463.83;1757675;79;21079;-60
2021/11/09 10:00:59;;;;;;;3.60;1.22;;;;;;;5.20;50.87;101462.17;1756765;79;21983;-60
2021/11/09 10:03:39;;;;;;;3.98;1.60;;;;;;;5.32;50.82;101463.44;1756839;79;21172;-60
2021/11/09 10:06:08;;;;;;;9.35;5.17;;;;;;;5.42;50.66;101470.44;1743419;79;21070;-60
2021/11/09 10:08:49;;;;;;;8.08;2.83;;;;;;;5.43;51.17;101461.68;1755836;79;21978;-60
2021/11/09 10:11:37;;;;;;;5.10;2.25;;;;;;;5.40;50.67;101457.45;1754654;79;21099;-60
2021/11/09 10:14:05;;;;;;;5.15;1.98;;;;;;;5.32;49.79;101460.83;1738478;79;21146;-61
2021/11/09 10:16:34;;;;;;;7.62;2.10;;;;;;;5.25;50.88;101466.75;1762083;79;21035;-60
2021/11/09 10:19:01;;;;;;;4.55;1.60;;;;;;;5.23;50.56;101456.84;1756404;79;20984;-60
2021/11/09 10:21:40;;;;;;;5.12;2.20;;;;;;;5.22;50.63;101476.00;1761053;79;21060;-60
2021/11/09 10:24:28;;;;;;;4.58;1.90;;;;;;;5.24;50.77;101468.12;1735598;80;22233;-61
2021/11/09 10:26:57;;;;;;;3.67;1.35;;;;;;;5.32;49.80;101462.97;1759390;79;20988;-62
2021/11/09 10:29:39;;;;;;;2.95;1.17;;;;;;;5.35;48.14;101474.59;1739795;79;21168;-61
2021/11/09 10:32:12;;;;;;;5.12;1.32;;;;;;;5.38;48.03;101470.56;1758018;79;21161;-60
2021/11/09 10:34:39;;;;;;;5.45;1.35;;;;;;;5.45;48.17;101467.25;1755820;79;21218;-60
2021/11/09 10:37:26;;;;;;;6.87;2.58;;;;;;;5.51;47.75;101467.44;1739742;80;21059;-60
2021/11/09 10:39:55;;;;;;;3.67;1.42;;;;;;;5.54;47.76;101463.40;1758447;79;21077;-60
2021/11/09 10:42:25;;;;;;;4.92;1.55;;;;;;;5.51;47.17;101472.66;1755610;80;21031;-61
2021/11/09 10:45:02;;;;;;;3.90;1.05;;;;;;;5.37;46.18;101478.45;1753352;79;21004;-60
2021/11/09 10:47:31;;;;;;;2.75;1.10;;;;;;;5.26;46.50;101476.30;1734138;79;21005;-61
2021/11/09 10:50:03;;;;;;;4.17;1.40;;;;;;;5.17;47.67;101475.34;1692882;83;21000;-60
2021/11/09 10:52:36;;;;;;;4.05;1.32;;;;;;;5.15;48.43;101483.69;1689320;83;21111;-61
2021/11/09 10:55:17;;;;;;;3.33;1.10;;;;;;;5.20;47.69;101480.44;1755444;79;21150;-59
2021/11/09 10:58:14;;;;;;;3.90;1.42;;;;;;;5.24;46.49;101477.25;1753715;79;21051;-59
2021/11/09 11:06:17;;;;;;;4.20;1.10;;;;;;;5.02;46.96;101493.28;1722809;80;21154;-60
2021/11/09 11:08:47;;;;;;;5.42;1.52;;;;;;;4.99;46.84;101492.56;1755869;79;21098;-60
2021/11/09 11:11:24;;;;;;;4.00;1.27;;;;;;;5.02;46.66;101493.75;1756854;79;21058;-60
2021/11/09 11:14:05;;;;;;;3.02;1.00;;;;;;;5.14;47.01;101501.55;1754306;79;21622;-60
2021/11/09 11:16:44;;;;;;;4.03;1.15;;;;;;;5.28;46.19;101496.64;1735137;79;21544;-60
2021/11/09 11:19:24;;;;;;;2.80;1.10;;;;;;;5.42;47.20;101503.91;1757696;79;21066;-62
2021/11/09 11:21:52;;;;;;;3.92;1.07;;;;;;;5.53;46.59;101508.25;1754618;79;21291;-61
2021/11/09 11:24:21;;;;;;;4.25;1.20;;;;;;;5.63;45.92;101507.86;1752019;79;21126;-61
2021/11/09 11:26:48;;;;;;;3.15;1.00;;;;;;;5.77;45.67;101507.68;1755925;79;21064;-61
2021/11/09 11:29:24;;;;;;;3.62;0.98;;;;;;;5.76;45.14;101515.58;1756446;79;21136;-60
2021/11/09 11:31:52;;;;;;;4.20;1.30;;;;;;;5.70;45.49;101518.00;1757637;79;21480;-62
2021/11/09 11:34:20;;;;;;;5.40;1.40;;;;;;;5.63;45.95;101522.22;1758418;79;21130;-60
2021/11/09 11:36:48;;;;;;;4.15;1.07;;;;;;;5.52;45.91;101521.36;1699185;83;21090;-60
2021/11/09 11:39:15;;;;;;;3.80;1.40;;;;;;;5.47;46.17;101519.40;1752627;79;21146;-60
2021/11/09 11:41:45;;;;;;;3.65;1.50;;;;;;;5.45;47.26;101522.53;1729234;80;21050;-59
2021/11/09 11:44:14;;;;;;;3.70;1.42;;;;;;;5.51;47.75;101513.12;1751149;79;21067;-61
2021/11/09 11:46:43;;;;;;;4.50;1.35;;;;;;;5.58;46.97;101512.83;1742206;79;21043;-60
2021/11/09 11:49:14;;;;;;;5.50;1.47;;;;;;;5.64;46.77;101514.79;1753625;79;21050;-61
2021/11/09 11:51:52;;;;;;;4.60;1.80;;;;;;;5.69;46.61;101516.28;1756987;79;21155;-60
2021/11/09 11:54:37;;;;;;;5.72;2.42;;;;;;;5.74;46.14;101524.78;1760832;79;21547;-59
2021/11/09 11:57:04;;;;;;;4.83;1.60;;;;;;;5.79;46.21;101527.67;1686831;80;21121;-61
2021/11/09 11:59:38;;;;;;;3.17;1.02;;;;;;;5.85;46.96;101535.23;1763077;79;21102;-61
2021/11/09 12:02:07;;;;;;;3.70;1.35;;;;;;;5.93;46.00;101533.15;1759279;79;21043;-61
2021/11/09 12:04:47;;;;;;;5.58;1.52;;;;;;;6.02;46.42;101544.56;1737970;79;21076;-61
2021/11/09 12:07:18;;;;;;;5.00;1.37;;;;;;;6.05;46.14;101547.05;1755267;79;21384;-60
2021/11/09 12:09:51;;;;;;;2.98;1.05;;;;;;;6.06;45.98;101543.97;1738264;80;21098;-60
2021/11/09 12:12:26;;;;;;;3.47;1.05;;;;;;;6.07;45.43;101540.42;1697389;82;21107;-60
2021/11/09 12:15:06;;;;;;;3.17;1.00;;;;;;;6.02;45.58;101554.14;1754954;79;22603;-67
2021/11/09 12:17:43;;;;;;;3.62;1.10;;;;;;;5.98;45.40;101556.04;1755403;79;21091;-63
2021/11/09 12:20:16;;;;;;;3.60;1.05;;;;;;;5.99;45.50;101553.84;1757301;79;21982;-58
2021/11/09 12:22:52;;;;;;;4.58;0.98;;;;;;;5.97;45.62;101554.36;1759241;79;21027;-60
2021/11/09 12:25:38;;;;;;;2.58;1.02;;;;;;;6.46;44.95;101564.01;1757591;79;21078;-61
2021/11/09 12:28:10;;;;;;;3.12;1.20;;;;;;;8.12;40.87;101564.48;1761239;79;21555;-60
2021/11/09 12:30:44;;;;;;;3.10;0.80;;;;;;;8.70;39.70;101572.43;1758443;79;21529;-61
2021/11/09 12:33:23;;;;;;;3.40;1.12;;;;;;;8.75;39.61;101574.81;1756147;79;21078;-61
2021/11/09 12:36:05;;;;;;;3.37;1.07;;;;;;;8.37;39.26;101576.32;1756633;79;21043;-61
2021/11/09 12:38:35;;;;;;;3.33;1.00;;;;;;;7.86;40.56;101589.84;1755253;79;21717;-63
2021/11/09 12:41:13;;;;;;;4.65;1.15;;;;;;;7.54;41.49;101588.33;1755944;79;21129;-61
2021/11/09 12:43:51;;;;;;;3.27;0.90;;;;;;;7.53;41.03;101580.06;1742454;80;21203;-61
2021/11/09 12:46:42;;;;;;;2.45;0.70;;;;;;;8.02;40.07;101595.16;1733729;79;21114;-61
2021/11/09 12:49:11;;;;;;;2.60;0.93;;;;;;;7.60;41.54;101597.21;1755124;79;21087;-61
2021/11/09 12:51:48;;;;;;;3.72;1.32;;;;;;;7.88;40.80;101603.70;1756302;79;22238;-60
2021/11/09 12:54:20;;;;;;;3.80;1.00;;;;;;;7.71;41.52;101608.47;1753774;79;21055;-60
2021/11/09 12:56:58;;;;;;;3.15;1.12;;;;;;;7.63;42.26;101612.31;1756492;79;21150;-59
2021/11/09 12:59:29;;;;;;;3.35;1.10;;;;;;;8.20;39.87;101612.59;1759286;79;21055;-59
2021/11/09 13:02:09;;;;;;;5.35;1.30;;;;;;;8.70;39.46;101608.33;1755298;79;21177;-61
2021/11/09 13:04:43;;;;;;;3.00;1.10;;;;;;;9.14;38.17;101616.07;1703881;82;21067;-62
2021/11/09 13:09:52;;;;;;;2.42;0.88;;;;;;;9.81;36.90;101631.17;1758197;79;21589;-63
2021/11/09 13:12:25;;;;;;;1.52;0.47;;;;;;;9.76;36.82;101640.63;1750716;79;21043;-62
2021/11/09 13:15:02;;;;;;;3.17;0.90;;;;;;;9.47;37.92;101657.56;1733615;79;21057;-62
2021/11/09 13:17:45;;;;;;;3.22;0.85;;;;;;;8.71;39.20;101655.48;1751991;79;21007;-61
2021/11/09 13:20:22;;;;;;;2.25;0.70;;;;;;;8.02;39.25;101657.63;1755365;79;20968;-61
2021/11/09 13:22:58;;;;;;;2.75;0.82;;;;;;;7.47;40.12;101655.86;1750289;79;21635;-61
2021/11/09 13:25:46;;;;;;;2.37;0.60;;;;;;;7.42;39.93;101666.55;1755212;79;21043;-60
2021/11/09 13:28:18;;;;;;;3.62;1.05;;;;;;;7.23;40.11;101661.78;1752674;79;21595;-61
2021/11/09 13:32:44;;;;;;;4.40;1.05;;;;;;;6.80;40.83;101670.23;1776057;78;22771;-60
2021/11/09 13:35:17;;;;;;;3.33;0.90;;;;;;;6.97;41.26;101679.95;1752463;80;21087;-60
2021/11/09 13:37:45;;;;;;;2.87;1.00;;;;;;;7.37;40.86;101680.31;1772741;78;21143;-60
2021/11/09 13:40:12;;;;;;;3.90;0.80;;;;;;;7.69;41.28;101688.45;1765650;78;21022;-60
2021/11/09 13:42:38;;;;;;;3.02;1.12;;;;;;;7.84;40.17;101696.52;1770955;78;21045;-61
2021/11/09 13:45:15;;;;;;;4.65;0.80;;;;;;;7.89;40.31;101694.05;1750309;78;21051;-60
2021/11/09 13:47:44;;;;;;;3.27;1.20;;;;;;;7.74;41.14;101703.95;1770803;78;21519;-60
2021/11/09 13:50:12;;;;;;;4.47;0.90;;;;;;;7.39;41.85;101701.19;1751578;80;21022;-60
2021/11/09 13:52:45;;;;;;;5.80;0.90;;;;;;;6.97;42.92;101717.90;1773344;78;21096;-60
2021/11/09 13:55:16;;;;;;;3.05;0.85;;;;;;;6.56;43.92;101728.37;1775135;80;21059;-60
2021/11/09 13:57:43;;;;;;;2.87;0.95;;;;;;;6.20;44.32;101725.02;1774569;78;21422;-60
2021/11/09 14:00:30;;;;;;;2.22;0.75;;;;;;;5.92;44.08;101736.55;1747870;79;21997;-60